Wind From: 20-09-2018 17:00 Until: 20:00 warning for: Wind Level: Yellow info button
suomi:
Tuulivaroitus maa-alueille: Lounaistuuli on voimakasta illalla, tuulen nopeus puuskissa 15 m/s.

svenska:
Vindvarning för landområden: På kvällen är den sydvästliga vinden kraftigt, i vindbyarna 15 m/s.

english:
Wind warning for land areas: In the evening, strong winds from southwest may bring strong gusts of 15 m/s. 


Thunder radar more information blitzortung!


Löydät sääaseman tiedot myös:

European Weather Network

Finland Weather Exchange

Weather Underground

AWEKAS



Weather Underground säähistoriasivu

Päivittäin yhteenveto Helmikuu 23, 2017 Yksiköt:  Metriset    Englantilaiset   Molemmat
« Edellinen Päivä
Seuraava Päivä »
Päivittäin Viikoittain Kuukausittain Vuosittain Mukautettu
  Korkea: Matala: Keskiarvo:
Lämpötila: -17.8 °C -23.2 °C -20.8 °C
Kastepiste: -17.8 °C -23.9 °C -21.4 °C
Kosteus: Humidity % 88 % 90 %
Tuulen nopeus: 0 km/h 0 km/h 5.3 km/h
Tuulenpuuska: 0 km/h - -
Tuuli:- - West
Ilmanpaine: 0 hPa 32708.8 hPa -
Sade: 0 mm    
Historical Graphs
 
 
Taulukkotiedot Helmikuu 23, 2017
Aika Lämpötila Kastepiste Ilmanpaine Tuuli Tuulen nopeus Tuulenpuuska Kosteus Sademäärä (tunneittain)
-17.8 °C -17.8 °C 0 hPa Calm     Humidity % 0 mm
00:00 -20.4 °C -21.2 °C 32800.2 hPa ESE 5.1 km/h 25.9 km/h 89 % 0 mm
00:15 -20.3 °C -21.2 °C 32790 hPa SE 5.1 km/h 20.8 km/h 89 % 0 mm
00:30 -20.3 °C -21.2 °C 32790 hPa South 5.1 km/h 18.2 km/h 89 % 0 mm
00:45 -20.3 °C -21.1 °C 32779.9 hPa SE 7.7 km/h 25.9 km/h 89 % 0 mm
01:00 -20.2 °C -21.2 °C 32779.9 hPa SE 7.7 km/h 28.5 km/h 88 % 0 mm
01:15 -20.2 °C -21.2 °C 32766.3 hPa South 7.7 km/h 23.3 km/h 88 % 0 mm
01:30 -20.2 °C -21.1 °C 32766.3 hPa South 5.1 km/h 23.3 km/h 88 % 0 mm
01:45 -20.2 °C -21.1 °C 32766.3 hPa SE 5.1 km/h 25.9 km/h 88 % 0 mm
02:00 -20.2 °C -21.1 °C 32756.2 hPa SSE 2.6 km/h 18.2 km/h 89 % 0 mm
02:15 -20.2 °C -21.1 °C 32742.6 hPa SSE 2.6 km/h 15.6 km/h 89 % 0 mm
02:30 -20.2 °C -21 °C 32742.6 hPa ESE 2.6 km/h 15.6 km/h 90 % 0 mm
02:45 -20.2 °C -21 °C 32742.6 hPa SE 5.1 km/h 25.9 km/h 90 % 0 mm
03:00 -20.2 °C -21 °C 32732.5 hPa East 2.6 km/h 15.6 km/h 90 % 0 mm
03:15 -20.2 °C -21 °C 32732.5 hPa SE 2.6 km/h 18.2 km/h 90 % 0 mm
03:30 -20.2 °C -21 °C 32732.5 hPa SE 2.6 km/h 12.9 km/h 90 % 0 mm
03:45 -20.2 °C -21 °C 32722.3 hPa Calm   7.7 km/h 90 % 0 mm
04:00 -20.3 °C -20.9 °C 32722.3 hPa Calm   7.7 km/h 91 % 0 mm
04:15 -20.3 °C -20.9 °C 32722.3 hPa Calm     92 % 0 mm
04:30 -20.3 °C -20.9 °C 32708.8 hPa Calm     92 % 0 mm
04:45 -20.3 °C -20.9 °C 32708.8 hPa Calm   2.6 km/h 93 % 0 mm
05:00 -20.3 °C -20.8 °C 32708.8 hPa Calm   2.6 km/h 93 % 0 mm
05:15 -20.3 °C -20.8 °C 32708.8 hPa Calm   5.1 km/h 94 % 0 mm
05:30 -20.3 °C -20.8 °C 32708.8 hPa Calm   2.6 km/h 94 % 0 mm
05:45 -20.3 °C -20.8 °C 32708.8 hPa Calm     94 % 0 mm
06:00 -20.3 °C -20.7 °C 32708.8 hPa Calm     94 % 0 mm
06:15 -20.3 °C -20.7 °C 32708.8 hPa Calm     94 % 0 mm
06:30 -20.3 °C -20.7 °C 32708.8 hPa Calm     94 % 0 mm
06:45 -20.3 °C -20.8 °C 32708.8 hPa Calm     94 % 0 mm
07:00 -20.3 °C -20.8 °C 32708.8 hPa Calm     94 % 0 mm
07:15 -20.3 °C -20.8 °C 32708.8 hPa Calm     94 % 0 mm
07:30 -20.3 °C -20.8 °C 32708.8 hPa Calm   5.1 km/h 94 % 0 mm
07:45 -20.4 °C -20.8 °C 32722.3 hPa Calm     94 % 0 mm
08:00 -20.4 °C -20.8 °C 32722.3 hPa Calm   5.1 km/h 94 % 0 mm
08:15 -20.4 °C -20.8 °C 32722.3 hPa Calm     94 % 0 mm
08:30 -20.4 °C -20.9 °C 32732.5 hPa Calm     94 % 0 mm
08:45 -20.4 °C -20.9 °C 32732.5 hPa Calm   2.6 km/h 94 % 0 mm
09:00 -20.4 °C -20.9 °C 32732.5 hPa Calm   5.1 km/h 94 % 0 mm
09:15 -20.4 °C -20.8 °C 32742.6 hPa Calm   2.6 km/h 94 % 0 mm
09:30 -20.4 °C -20.9 °C 32742.6 hPa Calm   7.7 km/h 94 % 0 mm
09:45 -20.4 °C -20.9 °C 32756.2 hPa Calm   2.6 km/h 94 % 0 mm
10:00 -20.4 °C -20.9 °C 32756.2 hPa Calm   7.7 km/h 94 % 0 mm
10:15 -20.4 °C -20.9 °C 32766.3 hPa Calm   5.1 km/h 93 % 0 mm
10:30 -20.4 °C -21 °C 32766.3 hPa NW 5.1 km/h 15.6 km/h 93 % 0 mm
10:45 -20.5 °C -21.1 °C 32779.9 hPa NNW 2.6 km/h 7.7 km/h 93 % 0 mm
11:00 -20.5 °C -21.1 °C 32779.9 hPa NW 5.1 km/h 15.6 km/h 92 % 0 mm
11:15 -20.6 °C -21.2 °C 32790 hPa NW 5.1 km/h 15.6 km/h 92 % 0 mm
11:30 -20.7 °C -21.3 °C 32800.2 hPa NW 7.7 km/h 20.8 km/h 92 % 0 mm
11:45 -20.8 °C -21.4 °C 32800.2 hPa NNW 5.1 km/h 20.8 km/h 92 % 0 mm
12:00 -20.7 °C -21.3 °C 32813.7 hPa NW 7.7 km/h 18.2 km/h 92 % 0 mm
12:15 -20.7 °C -21.3 °C 32823.9 hPa NW 2.6 km/h 18.2 km/h 92 % 0 mm
12:30 -20.7 °C -21.4 °C 32837.4 hPa NW 7.7 km/h 18.2 km/h 91 % 0 mm
12:45 -20.7 °C -21.4 °C 32837.4 hPa NW 10.3 km/h 20.8 km/h 91 % 0 mm
13:00 -20.7 °C -21.4 °C 32847.6 hPa NW 12.9 km/h 25.9 km/h 91 % 0 mm
13:15 -20.7 °C -21.4 °C 32857.7 hPa NW 10.3 km/h 23.3 km/h 91 % 0 mm
13:30 -20.7 °C -21.3 °C 32857.7 hPa NW 7.7 km/h 28.5 km/h 92 % 0 mm
13:45 -20.6 °C -21.2 °C 32871.3 hPa NNW 10.3 km/h 20.8 km/h 92 % 0 mm
14:00 -20.4 °C -21.2 °C 32881.4 hPa NW 12.9 km/h 28.5 km/h 90 % 0 mm
14:15 -20.4 °C -21.2 °C 32881.4 hPa NW 12.9 km/h 25.9 km/h 90 % 0 mm
14:30 -20.3 °C -21.1 °C 32891.6 hPa NW 10.3 km/h 23.3 km/h 91 % 0 mm
14:45 -20.4 °C -21.1 °C 32905.1 hPa NW 12.9 km/h 33.6 km/h 91 % 0 mm
15:00 -20.4 °C -21.1 °C 32905.1 hPa NW 12.9 km/h 31.1 km/h 91 % 0 mm
15:15 -20.4 °C -21.1 °C 32915.3 hPa NW 12.9 km/h 23.3 km/h 91 % 0 mm
15:30 -20.4 °C -21.1 °C 32928.9 hPa NNW 10.3 km/h 20.8 km/h 91 % 0 mm
15:45 -20.3 °C -21 °C 32928.9 hPa NW 7.7 km/h 18.2 km/h 91 % 0 mm
16:00 -20.3 °C -21 °C 32928.9 hPa NW 7.7 km/h 28.5 km/h 91 % 0 mm
16:15 -20.3 °C -20.9 °C 32939 hPa NW 7.7 km/h 20.8 km/h 92 % 0 mm
16:30 -20.3 °C -21.1 °C 32949.2 hPa NW 12.9 km/h 28.5 km/h 91 % 0 mm
16:45 -20.4 °C -21.2 °C 32962.7 hPa NW 10.3 km/h 31.1 km/h 90 % 0 mm
17:00 -20.5 °C -21.3 °C 32962.7 hPa NW 12.9 km/h 25.9 km/h 90 % 0 mm
17:15 -20.6 °C -21.4 °C 32972.9 hPa NW 10.3 km/h 31.1 km/h 89 % 0 mm
17:30 -20.6 °C -21.4 °C 32986.4 hPa NW 10.3 km/h 36.2 km/h 90 % 0 mm
17:45 -20.8 °C -21.7 °C 32996.6 hPa NW 12.9 km/h 33.6 km/h 89 % 0 mm
18:00 -20.9 °C -21.7 °C 33006.7 hPa NW 12.9 km/h 31.1 km/h 90 % 0 mm
18:15 -21.1 °C -21.9 °C 33020.3 hPa WNW 10.3 km/h 28.5 km/h 90 % 0 mm
18:30 -21.3 °C -22.1 °C 33030.4 hPa NW 10.3 km/h 23.3 km/h 90 % 0 mm
18:45 -21.4 °C -22.2 °C 33030.4 hPa NW 10.3 km/h 25.9 km/h 90 % 0 mm
19:00 -21.5 °C -22.3 °C 33030.4 hPa NW 12.9 km/h 28.5 km/h 89 % 0 mm
19:15 -21.6 °C -22.4 °C 33030.4 hPa NW 15.6 km/h 28.5 km/h 89 % 0 mm
19:30 -21.7 °C -22.6 °C 33030.4 hPa NW 10.3 km/h 23.3 km/h 89 % 0 mm
19:45 -21.8 °C -22.7 °C 33040.6 hPa NW 7.7 km/h 15.6 km/h 89 % 0 mm
20:00 -21.8 °C -22.6 °C 33040.6 hPa WNW 12.9 km/h 31.1 km/h 89 % 0 mm
20:15 -21.8 °C -22.7 °C 33040.6 hPa WNW 7.7 km/h 20.8 km/h 89 % 0 mm
20:30 -21.8 °C -22.7 °C 33040.6 hPa WNW 5.1 km/h 20.8 km/h 89 % 0 mm
20:45 -21.9 °C -22.7 °C 33040.6 hPa WNW 7.7 km/h 23.3 km/h 89 % 0 mm
21:00 -21.9 °C -22.7 °C 33040.6 hPa WNW 7.7 km/h 20.8 km/h 89 % 0 mm
21:15 -22.1 °C -22.9 °C 33054.1 hPa West 5.1 km/h 18.2 km/h 89 % 0 mm
21:30 -22.1 °C -22.9 °C 33054.1 hPa West 5.1 km/h 20.8 km/h 89 % 0 mm
21:45 -22.3 °C -23.1 °C 33064.3 hPa WNW 5.1 km/h 15.6 km/h 89 % 0 mm
22:00 -22.4 °C -23.3 °C 33064.3 hPa WNW 5.1 km/h 15.6 km/h 89 % 0 mm
22:15 -22.6 °C -23.3 °C 33064.3 hPa WNW 2.6 km/h 15.6 km/h 89 % 0 mm
22:30 -22.6 °C -23.4 °C 33077.8 hPa WNW 2.6 km/h 15.6 km/h 90 % 0 mm
22:45 -22.7 °C -23.5 °C 33077.8 hPa Calm   7.7 km/h 90 % 0 mm
23:00 -22.9 °C -23.7 °C 33077.8 hPa Calm   5.1 km/h 90 % 0 mm
23:15 -23.1 °C -23.8 °C 33077.8 hPa Calm   5.1 km/h 90 % 0 mm
23:30 -23.2 °C -23.9 °C 33088 hPa WNW 2.6 km/h 7.7 km/h 90 % 0 mm
23:45 -23.2 °C -23.9 °C 33088 hPa Calm   7.7 km/h 91 % 0 mm
Esan sääasema
Terveisin Weather Underground - 2.75 mb

Alkuperäinen skripti  Jim McMurry - jmcmurry@mwt.net Sovitettu myös templatelle  Wim van der Kuil - Leuven-Template.eu

Laitteet joita käytämme:

Sääasema
Davis VP2

Sääasemaohjelma
Cumulus

Sääaseman tietokone
Asus EeePC

Palveluntarjoaja
Suncomet

Davis VP2

Cumulus

Asus EeePC

Suncomet